Time;durP1;ratioP1;P1;durP2;ratioP2;P2;SDS_P1;SDS_P2;PMS_P1;PMS_P2;Temp;Humidity;BMP_temperature;BMP_pressure;BME280_temperature;BME280_humidity;BME280_pressure;Samples;Min_cycle;Max_cycle;Signal;HPM_P1;HPM_P2
2022/01/11 00:01:41;;;;;;;1.77;0.90;;;1.70;99.90;;;;;;5112487;28;20175;-74
2022/01/11 00:04:08;;;;;;;2.75;1.27;;;1.70;99.90;;;;;;5117381;28;20162;-76
2022/01/11 00:06:44;;;;;;;1.75;1.20;;;1.40;99.90;;;;;;5132900;28;20201;-74
2022/01/11 00:09:22;;;;;;;1.45;0.80;;;1.40;99.90;;;;;;5132798;28;20196;-74
2022/01/11 00:11:49;;;;;;;4.85;1.20;;;1.30;99.90;;;;;;5132996;28;20234;-75
2022/01/11 00:14:15;;;;;;;1.73;1.13;;;1.00;99.90;;;;;;5114373;28;20174;-74
2022/01/11 00:16:41;;;;;;;2.63;1.23;;;0.70;99.90;;;;;;5132841;28;20167;-74
2022/01/11 00:19:07;;;;;;;3.65;2.53;;;0.60;99.90;;;;;;5132490;28;20155;-75
2022/01/11 00:21:37;;;;;;;3.50;2.38;;;0.50;99.90;;;;;;5132668;28;20228;-75
2022/01/11 00:26:48;;;;;;;4.63;2.40;;;0.20;99.90;;;;;;5132585;28;20221;-74
2022/01/11 00:29:14;;;;;;;4.35;2.78;;;0.00;99.90;;;;;;5132317;28;20195;-74
2022/01/11 00:31:41;;;;;;;4.68;3.25;;;-0.20;99.90;;;;;;5132499;28;20159;-74
2022/01/11 00:34:08;;;;;;;4.97;2.80;;;-0.30;99.90;;;;;;5113971;28;20188;-73
2022/01/11 00:36:42;;;;;;;3.88;2.60;;;-0.40;99.90;;;;;;5132314;28;20154;-74
2022/01/11 00:39:09;;;;;;;3.40;2.60;;;-0.50;99.90;;;;;;5113664;28;20174;-75
2022/01/11 00:41:37;;;;;;;4.22;2.60;;;-0.60;99.90;;;;;;5132253;28;20185;-73
2022/01/11 00:44:05;;;;;;;5.65;3.25;;;-0.70;99.90;;;;;;5113749;28;20170;-73
2022/01/11 00:46:31;;;;;;;3.63;2.72;;;-0.90;99.90;;;;;;5132000;28;20186;-74
2022/01/11 00:48:57;;;;;;;4.50;3.20;;;-0.90;99.90;;;;;;5131973;28;20166;-72
2022/01/11 00:51:23;;;;;;;5.75;3.22;;;-1.00;99.90;;;;;;5132066;28;20154;-72
2022/01/11 00:53:49;;;;;;;4.18;2.95;;;-1.00;99.90;;;;;;5113672;28;20167;-74
2022/01/11 00:56:15;;;;;;;7.10;3.22;;;-1.20;99.90;;;;;;5131816;28;20517;-74
2022/01/11 00:58:41;;;;;;;3.60;3.05;;;-1.40;99.90;;;;;;5117790;27;20214;-73
2022/01/11 01:01:07;;;;;;;5.00;3.70;;;-1.40;99.90;;;;;;5125141;27;20203;-72
2022/01/11 01:03:34;;;;;;;6.53;3.92;;;-1.40;99.90;;;;;;5093233;28;20183;-75
2022/01/11 01:06:00;;;;;;;4.72;3.35;;;-1.40;99.90;;;;;;5111304;28;20213;-72
2022/01/11 01:08:26;;;;;;;5.97;3.17;;;-1.50;99.90;;;;;;5111335;28;20179;-73
2022/01/11 01:10:52;;;;;;;4.82;3.08;;;-1.40;99.90;;;;;;5111110;28;20187;-72
2022/01/11 01:13:22;;;;;;;6.57;2.80;;;-1.30;99.90;;;;;;5111222;28;20144;-74
2022/01/11 01:15:50;;;;;;;4.68;2.80;;;-1.30;99.90;;;;;;5109786;28;20223;-72
2022/01/11 01:18:21;;;;;;;8.98;3.83;;;-1.30;99.90;;;;;;5110899;28;20162;-75
2022/01/11 01:20:48;;;;;;;6.20;3.35;;;-1.50;99.90;;;;;;5110950;28;20183;-73
2022/01/11 01:23:14;;;;;;;5.50;3.05;;;-1.60;99.90;;;;;;5110923;28;20156;-74
2022/01/11 01:25:42;;;;;;;6.57;3.40;;;-1.70;99.90;;;;;;5110843;28;20191;-72
2022/01/11 01:28:09;;;;;;;4.25;3.20;;;-1.80;99.90;;;;;;5110679;28;20260;-73
2022/01/11 01:30:36;;;;;;;7.22;3.70;;;-1.90;99.90;;;;;;5110668;28;20191;-73
2022/01/11 01:33:03;;;;;;;6.55;3.55;;;-1.90;99.90;;;;;;5110869;28;20183;-75
2022/01/11 01:35:35;;;;;;;8.48;3.22;;;-2.00;99.90;;;;;;5110634;28;20148;-74
2022/01/11 01:38:03;;;;;;;6.90;3.85;;;-2.10;99.90;;;;;;5110668;28;20166;-72
2022/01/11 01:40:36;;;;;;;4.13;3.05;;;-2.20;99.90;;;;;;5092263;28;20221;-72
2022/01/11 01:43:04;;;;;;;6.55;3.33;;;-2.20;99.90;;;;;;5110510;28;20160;-74
2022/01/11 01:45:31;;;;;;;4.88;3.22;;;-2.30;99.90;;;;;;5110404;28;20156;-72
2022/01/11 01:47:58;;;;;;;8.85;3.60;;;-2.20;99.90;;;;;;5110488;28;20308;-75
2022/01/11 01:50:27;;;;;;;3.88;3.45;;;-2.10;99.90;;;;;;5109519;28;20183;-73
2022/01/11 01:52:56;;;;;;;5.00;3.22;;;-2.10;99.90;;;;;;5092045;28;20160;-74
2022/01/11 01:55:22;;;;;;;7.00;3.35;;;-2.00;99.90;;;;;;5110336;28;20211;-75
2022/01/11 01:57:50;;;;;;;7.45;2.70;;;-2.10;99.90;;;;;;5110369;28;20170;-75
2022/01/11 02:00:17;;;;;;;4.88;2.22;;;-2.00;99.90;;;;;;5131010;27;20694;-75
2022/01/11 02:02:43;;;;;;;3.78;0.95;;;-1.30;99.90;;;;;;5130654;28;20155;-75
2022/01/11 02:05:09;;;;;;;0.93;0.90;;;0.10;99.90;;;;;;5130794;28;20685;-75
2022/01/11 02:07:35;;;;;;;1.35;1.08;;;0.80;99.90;;;;;;5112133;28;20202;-74
2022/01/11 02:10:05;;;;;;;1.92;0.90;;;1.10;99.90;;;;;;5112144;28;20198;-74
2022/01/11 02:12:31;;;;;;;1.45;1.00;;;1.30;99.90;;;;;;5112067;28;20182;-75
2022/01/11 02:14:57;;;;;;;1.45;1.10;;;1.50;99.90;;;;;;5130366;28;20208;-75
2022/01/11 02:17:27;;;;;;;2.05;0.80;;;1.60;99.90;;;;;;5112115;28;20178;-75
2022/01/11 02:19:57;;;;;;;1.10;0.98;;;1.60;99.90;;;;;;5112103;28;20191;-73
2022/01/11 02:22:26;;;;;;;1.65;0.95;;;1.70;99.90;;;;;;5112005;28;20315;-74
2022/01/11 02:24:53;;;;;;;1.35;1.00;;;1.70;99.90;;;;;;5130260;28;20163;-74
2022/01/11 02:27:19;;;;;;;0.98;0.80;;;1.80;99.90;;;;;;5130192;28;20178;-74
2022/01/11 02:29:46;;;;;;;0.73;0.73;;;1.70;99.90;;;;;;5130220;28;20190;-75
2022/01/11 02:32:12;;;;;;;0.65;0.45;;;1.80;99.90;;;;;;5111929;28;20177;-75
2022/01/11 02:34:37;;;;;;;0.80;0.70;;;1.70;99.90;;;;;;5130125;28;20211;-75
2022/01/11 02:37:05;;;;;;;1.25;0.80;;;1.50;99.90;;;;;;5130148;28;20165;-75
2022/01/11 02:39:31;;;;;;;1.65;1.02;;;1.40;99.90;;;;;;5129937;28;20221;-75
2022/01/11 02:41:58;;;;;;;2.50;1.23;;;1.80;99.90;;;;;;5129940;28;20163;-74
2022/01/11 02:44:24;;;;;;;3.95;1.10;;;1.70;99.90;;;;;;5130153;28;20154;-75
2022/01/11 02:46:50;;;;;;;0.60;0.60;;;1.90;99.90;;;;;;5129931;28;20186;-75
2022/01/11 02:49:16;;;;;;;1.50;0.90;;;1.90;99.90;;;;;;5129881;28;20219;-76
2022/01/11 02:51:42;;;;;;;2.17;0.80;;;1.80;99.90;;;;;;5111632;28;20234;-76
2022/01/11 02:54:09;;;;;;;1.00;0.82;;;1.90;99.90;;;;;;5111637;28;20169;-75
2022/01/11 02:56:35;;;;;;;1.58;0.98;;;1.70;99.90;;;;;;5111528;28;20170;-76
2022/01/11 02:59:02;;;;;;;1.98;0.85;;;1.60;99.90;;;;;;5134361;28;20234;-77
2022/01/11 03:01:28;;;;;;;1.35;1.10;;;1.80;99.90;;;;;;5132475;28;20178;-76
2022/01/11 03:03:54;;;;;;;0.65;0.60;;;1.90;99.90;;;;;;5115948;28;20192;-77
2022/01/11 03:06:20;;;;;;;1.92;1.00;;;2.00;99.90;;;;;;5115776;28;20240;-80
2022/01/11 03:08:47;;;;;;;2.10;1.13;;;1.80;99.90;;;;;;5115652;28;20173;-80
2022/01/11 03:11:16;;;;;;;2.05;0.93;;;1.60;99.90;;;;;;5133823;28;20246;-78
2022/01/11 03:13:43;;;;;;;1.63;1.00;;;1.60;99.90;;;;;;5132666;28;20155;-79
2022/01/11 03:16:13;;;;;;;1.55;0.90;;;1.70;99.90;;;;;;5115569;28;20218;-78
2022/01/11 03:18:40;;;;;;;1.98;1.17;;;1.70;99.90;;;;;;5115383;28;20174;-78
2022/01/11 03:21:06;;;;;;;2.28;1.13;;;1.80;99.90;;;;;;5115310;28;20258;-79
2022/01/11 03:23:32;;;;;;;1.40;0.75;;;1.90;99.90;;;;;;5115263;28;20163;-78
2022/01/11 03:26:01;;;;;;;1.45;1.02;;;1.90;99.90;;;;;;5133722;28;20215;-78
2022/01/11 03:28:28;;;;;;;1.95;0.93;;;1.90;99.90;;;;;;5133723;28;20167;-79
2022/01/11 03:30:54;;;;;;;1.08;0.90;;;1.80;99.90;;;;;;5115266;28;20285;-79
2022/01/11 03:33:21;;;;;;;0.90;0.73;;;1.80;99.90;;;;;;5133712;28;20155;-78
2022/01/11 03:35:49;;;;;;;1.95;1.20;;;1.70;99.90;;;;;;5115213;28;20163;-78
2022/01/11 03:38:16;;;;;;;3.58;1.80;;;1.60;99.90;;;;;;5133530;28;20218;-79
2022/01/11 03:40:43;;;;;;;4.60;1.30;;;1.40;99.90;;;;;;5133389;28;20187;-79
2022/01/11 03:43:10;;;;;;;2.53;1.45;;;1.20;99.90;;;;;;5115199;28;20174;-78
2022/01/11 03:45:37;;;;;;;4.15;1.52;;;1.10;99.90;;;;;;5133280;28;20495;-79
2022/01/11 03:48:05;;;;;;;2.13;1.17;;;0.90;99.90;;;;;;5133301;28;20187;-78
2022/01/11 03:50:32;;;;;;;2.80;1.45;;;1.00;99.90;;;;;;5133211;28;20254;-78
2022/01/11 03:53:06;;;;;;;2.05;1.17;;;1.00;99.90;;;;;;5114931;28;20167;-77
2022/01/11 03:58:17;;;;;;;5.47;1.90;;;1.00;99.90;;;;;;5132946;28;20157;-76
2022/01/11 04:00:44;;;;;;;9.45;1.92;;;0.90;99.90;;;;;;5133006;28;20257;-76
2022/01/11 04:03:11;;;;;;;3.17;1.15;;;0.60;99.90;;;;;;5114590;28;20265;-76
2022/01/11 04:05:37;;;;;;;3.53;2.03;;;0.40;99.90;;;;;;5132993;28;20211;-75
2022/01/11 04:08:03;;;;;;;1.67;1.27;;;0.30;99.90;;;;;;5132842;28;20543;-75
2022/01/11 04:10:29;;;;;;;5.45;2.03;;;0.90;99.90;;;;;;5132830;28;20188;-77
2022/01/11 04:12:55;;;;;;;3.55;2.03;;;1.00;99.90;;;;;;5132065;28;20151;-76
2022/01/11 04:15:21;;;;;;;6.07;2.58;;;0.70;99.90;;;;;;5114340;28;20190;-77
2022/01/11 04:17:47;;;;;;;6.30;2.45;;;0.60;99.90;;;;;;5132710;28;20170;-76
2022/01/11 04:20:14;;;;;;;2.13;1.60;;;0.80;99.90;;;;;;5132678;28;20194;-76
2022/01/11 04:22:41;;;;;;;1.17;1.00;;;1.20;99.90;;;;;;5132530;28;20538;-76
2022/01/11 04:25:08;;;;;;;2.25;1.17;;;1.90;99.90;;;;;;5132528;28;20589;-77
2022/01/11 04:27:34;;;;;;;1.48;0.98;;;1.90;99.90;;;;;;5114122;28;20284;-78
2022/01/11 04:29:59;;;;;;;2.08;1.42;;;1.90;99.90;;;;;;5132427;28;20194;-77
2022/01/11 04:32:27;;;;;;;2.40;1.73;;;1.90;99.90;;;;;;5132343;28;20704;-77
2022/01/11 04:34:53;;;;;;;2.20;1.42;;;2.20;99.90;;;;;;5132386;28;20201;-75
2022/01/11 04:37:20;;;;;;;1.77;1.35;;;2.40;99.90;;;;;;5132303;28;20227;-75
2022/01/11 04:39:46;;;;;;;1.30;1.20;;;2.40;99.90;;;;;;5132084;28;20201;-78
2022/01/11 04:42:12;;;;;;;1.83;1.27;;;2.50;99.90;;;;;;5113775;28;20227;-77
2022/01/11 04:44:38;;;;;;;2.22;1.40;;;2.40;99.90;;;;;;5132066;28;20158;-76
2022/01/11 04:47:04;;;;;;;3.28;2.25;;;2.20;99.90;;;;;;5132214;28;20190;-76
2022/01/11 04:49:30;;;;;;;2.88;1.17;;;2.00;99.90;;;;;;5131996;28;20235;-77
2022/01/11 04:51:56;;;;;;;6.28;1.30;;;2.00;99.90;;;;;;5131931;28;20174;-76
2022/01/11 04:54:23;;;;;;;2.90;1.08;;;2.10;99.90;;;;;;5131816;28;20174;-76
2022/01/11 04:56:48;;;;;;;2.08;1.10;;;2.00;99.90;;;;;;5113271;28;20167;-75
2022/01/11 04:59:15;;;;;;;0.93;0.82;;;2.10;99.90;;;;;;5131434;28;20218;-76
2022/01/11 05:01:41;;;;;;;1.35;1.02;;;2.30;99.90;;;;;;5131915;28;20169;-76
2022/01/11 05:04:07;;;;;;;2.17;1.30;;;2.20;99.90;;;;;;5131756;28;20170;-76
2022/01/11 05:06:34;;;;;;;2.00;1.27;;;2.50;99.90;;;;;;5113458;28;20210;-77
2022/01/11 05:09:01;;;;;;;1.95;0.98;;;2.60;99.90;;;;;;5131835;28;20151;-77
2022/01/11 05:11:27;;;;;;;4.90;4.53;;;2.50;99.90;;;;;;5131733;28;20191;-77
2022/01/11 05:13:53;;;;;;;1.98;1.50;;;2.30;99.90;;;;;;5131897;28;20161;-76
2022/01/11 05:16:18;;;;;;;1.10;1.00;;;2.20;99.90;;;;;;5131794;28;20182;-75
2022/01/11 05:18:44;;;;;;;1.95;1.20;;;2.40;99.90;;;;;;5131529;28;20163;-75
2022/01/11 05:21:10;;;;;;;2.05;1.20;;;2.40;99.90;;;;;;5131904;28;20193;-76
2022/01/11 05:23:36;;;;;;;2.45;1.10;;;2.40;99.90;;;;;;5131414;28;20155;-75
2022/01/11 05:26:03;;;;;;;2.60;1.40;;;2.30;99.90;;;;;;5131176;28;20220;-75
2022/01/11 05:28:30;;;;;;;1.42;1.17;;;2.40;99.90;;;;;;5112957;28;20162;-76
2022/01/11 05:30:56;;;;;;;2.42;1.60;;;2.40;99.90;;;;;;5131081;28;20186;-79
2022/01/11 05:33:22;;;;;;;3.22;1.83;;;2.50;99.90;;;;;;5131303;28;20169;-75
2022/01/11 05:35:48;;;;;;;4.20;1.65;;;2.50;99.90;;;;;;5112907;28;20167;-75
2022/01/11 05:38:14;;;;;;;1.75;1.40;;;2.40;99.90;;;;;;5131125;28;20185;-76
2022/01/11 05:40:40;;;;;;;4.38;1.15;;;2.30;99.90;;;;;;5131153;28;20198;-75
2022/01/11 05:43:06;;;;;;;1.52;1.20;;;2.40;99.90;;;;;;5131123;28;20159;-75
2022/01/11 05:45:32;;;;;;;2.13;1.55;;;2.60;99.90;;;;;;5130511;28;20170;-75
2022/01/11 05:48:00;;;;;;;2.15;1.60;;;2.50;99.90;;;;;;5130694;28;20187;-75
2022/01/11 05:50:26;;;;;;;1.80;1.20;;;2.50;99.90;;;;;;5112142;28;20191;-77
2022/01/11 05:52:53;;;;;;;2.33;1.40;;;2.40;99.90;;;;;;5130767;28;20196;-77
2022/01/11 05:55:19;;;;;;;4.88;0.90;;;2.50;99.90;;;;;;5130428;28;20154;-77
2022/01/11 05:57:46;;;;;;;1.58;1.17;;;2.40;99.90;;;;;;5111437;28;20248;-77
2022/01/11 06:00:15;;;;;;;1.05;1.00;;;2.20;99.90;;;;;;5103002;28;20355;-76
2022/01/11 06:02:44;;;;;;;3.35;1.48;;;2.20;99.90;;;;;;5099226;28;20175;-77
2022/01/11 06:05:10;;;;;;;3.80;0.95;;;2.10;99.90;;;;;;5091688;28;20189;-76
2022/01/11 06:07:37;;;;;;;6.88;1.60;;;1.90;99.90;;;;;;5124551;28;20202;-76
2022/01/11 06:10:05;;;;;;;1.35;1.25;;;1.90;99.90;;;;;;5116714;28;20186;-77
2022/01/11 06:12:30;;;;;;;1.90;1.50;;;2.00;99.90;;;;;;5091179;28;20174;-76
2022/01/11 06:14:56;;;;;;;1.98;1.40;;;2.10;99.90;;;;;;5120273;28;20182;-75
2022/01/11 06:17:22;;;;;;;2.42;1.35;;;2.20;99.90;;;;;;5092732;28;20240;-75
2022/01/11 06:19:48;;;;;;;2.28;1.65;;;2.40;99.90;;;;;;5114473;28;20224;-76
2022/01/11 06:22:14;;;;;;;1.90;1.17;;;2.10;99.90;;;;;;5112150;28;20196;-77
2022/01/11 06:24:40;;;;;;;1.92;1.40;;;1.90;99.90;;;;;;5129773;28;20159;-78
2022/01/11 06:27:06;;;;;;;1.63;1.25;;;2.20;99.90;;;;;;5111643;28;20203;-78
2022/01/11 06:29:32;;;;;;;1.10;0.80;;;2.20;99.90;;;;;;5129813;28;20189;-78
2022/01/11 06:31:58;;;;;;;2.40;1.60;;;2.60;99.90;;;;;;5124705;28;20227;-78
2022/01/11 06:34:24;;;;;;;2.67;1.20;;;2.70;99.90;;;;;;5091185;28;20191;-78
2022/01/11 06:36:49;;;;;;;2.47;1.83;;;2.70;99.90;;;;;;5101470;28;20186;-77
2022/01/11 06:39:15;;;;;;;1.45;1.20;;;2.70;99.90;;;;;;5111417;28;20266;-75
2022/01/11 06:41:42;;;;;;;5.40;3.80;;;2.70;99.90;;;;;;5111664;28;20173;-76
2022/01/11 06:44:10;;;;;;;6.78;3.63;;;2.70;99.90;;;;;;5123002;28;20168;-78
2022/01/11 06:46:37;;;;;;;5.18;2.35;;;2.80;99.90;;;;;;5091190;28;20194;-81
2022/01/11 06:49:04;;;;;;;2.60;1.73;;;3.00;99.90;;;;;;5092080;28;20161;-80
2022/01/11 06:51:31;;;;;;;2.70;2.30;;;2.90;99.90;;;;;;5108890;28;20194;-79
2022/01/11 06:53:57;;;;;;;2.70;1.90;;;2.90;99.90;;;;;;5108256;28;20536;-79
2022/01/11 06:56:24;;;;;;;3.00;1.40;;;2.80;99.90;;;;;;5111476;28;20188;-79
2022/01/11 06:58:50;;;;;;;2.53;1.45;;;2.80;99.90;;;;;;5129368;28;20210;-78
2022/01/11 07:01:16;;;;;;;2.10;1.27;;;2.70;99.90;;;;;;5111241;28;20198;-79
2022/01/11 07:03:42;;;;;;;1.88;1.35;;;2.70;99.90;;;;;;5129358;28;20159;-79
2022/01/11 07:06:08;;;;;;;2.08;1.30;;;2.70;99.90;;;;;;5110801;28;20594;-79
2022/01/11 07:08:33;;;;;;;4.57;1.55;;;2.60;99.90;;;;;;5105691;28;20647;-79
2022/01/11 07:10:59;;;;;;;1.45;1.20;;;2.50;99.90;;;;;;5126424;28;20201;-78
2022/01/11 07:13:25;;;;;;;2.30;1.67;;;2.40;99.90;;;;;;5109709;28;20197;-79
2022/01/11 07:15:51;;;;;;;2.90;1.70;;;2.30;99.90;;;;;;5111184;28;20234;-79
2022/01/11 07:18:17;;;;;;;6.68;1.60;;;2.20;99.90;;;;;;5129604;28;20221;-79
2022/01/11 07:20:43;;;;;;;7.43;1.45;;;2.20;99.90;;;;;;5129128;28;20197;-79
2022/01/11 07:23:11;;;;;;;10.68;3.75;;;2.40;99.90;;;;;;5109109;28;20693;-79
2022/01/11 07:25:37;;;;;;;6.90;3.80;;;2.00;99.90;;;;;;5108100;28;20162;-78
2022/01/11 07:28:04;;;;;;;11.90;4.50;;;1.00;99.90;;;;;;5126367;28;20190;-78
2022/01/11 07:30:30;;;;;;;5.53;3.20;;;0.10;99.90;;;;;;5108373;28;20170;-78
2022/01/11 07:32:56;;;;;;;9.07;5.00;;;-0.40;99.90;;;;;;5127831;28;20155;-79
2022/01/11 07:35:25;;;;;;;12.27;4.20;;;-0.70;99.90;;;;;;5128021;28;20162;-78
2022/01/11 07:37:52;;;;;;;9.15;4.57;;;-0.90;99.90;;;;;;5128112;28;20187;-79
2022/01/11 07:40:19;;;;;;;19.30;5.05;;;-0.90;99.90;;;;;;5129117;28;20173;-79
2022/01/11 07:42:46;;;;;;;14.48;5.40;;;-1.10;99.90;;;;;;5096976;28;20199;-79
2022/01/11 07:45:12;;;;;;;9.20;4.97;;;-1.00;99.90;;;;;;5090825;28;20175;-78
2022/01/11 07:47:38;;;;;;;11.25;4.63;;;-1.00;99.90;;;;;;5119352;28;20222;-80
2022/01/11 07:50:06;;;;;;;12.57;4.43;;;-0.90;99.90;;;;;;5121431;28;20182;-78
2022/01/11 07:52:32;;;;;;;10.10;4.18;;;-0.90;99.90;;;;;;5112638;28;20190;-77
2022/01/11 07:55:00;;;;;;;12.43;3.90;;;-0.80;99.90;;;;;;5109574;28;20210;-78
2022/01/11 07:57:27;;;;;;;9.93;4.47;;;-0.60;99.90;;;;;;5128014;28;20194;-76
2022/01/11 07:59:52;;;;;;;9.38;4.07;;;-0.30;99.90;;;;;;5109726;28;20272;-78
2022/01/11 08:02:18;;;;;;;8.45;4.47;;;-0.10;99.90;;;;;;5129994;28;20195;-81
2022/01/11 08:04:44;;;;;;;12.90;4.57;;;0.10;99.90;;;;;;5132851;28;20161;-79
2022/01/11 08:07:11;;;;;;;13.70;5.25;;;0.30;99.90;;;;;;5129417;28;20210;-77
2022/01/11 08:09:37;;;;;;;7.75;4.78;;;0.50;99.90;;;;;;5114124;28;20193;-77
2022/01/11 08:12:03;;;;;;;11.15;5.03;;;0.70;99.90;;;;;;5132415;28;20147;-75
2022/01/11 08:14:29;;;;;;;10.63;4.35;;;2.30;99.90;;;;;;5114059;28;20202;-76
2022/01/11 08:16:55;;;;;;;8.40;5.40;;;4.00;99.90;;;;;;5097361;28;20202;-76
2022/01/11 08:19:30;;;;;;;13.18;6.78;;;5.70;99.90;;;;;;5132548;28;20159;-76
2022/01/11 08:21:57;;;;;;;5.55;2.90;;;8.00;99.90;;;;;;5111759;28;20182;-77
2022/01/11 08:24:24;;;;;;;5.63;1.55;;;9.20;99.90;;;;;;5104848;28;20194;-79
2022/01/11 08:26:51;;;;;;;1.90;1.60;;;8.90;99.90;;;;;;5117158;28;20207;-79
2022/01/11 08:29:18;;;;;;;1.65;1.20;;;9.30;99.90;;;;;;5112245;28;20152;-78
2022/01/11 08:31:48;;;;;;;3.08;1.23;;;10.10;99.90;;;;;;5111804;28;20143;-76
2022/01/11 08:34:14;;;;;;;1.77;1.30;;;7.50;99.90;;;;;;5128529;28;20612;-77
2022/01/11 08:36:48;;;;;;;0.93;0.93;;;7.70;99.90;;;;;;5127214;28;20190;-77
2022/01/11 08:39:14;;;;;;;1.65;1.25;;;8.90;99.90;;;;;;5098065;28;20249;-76
2022/01/11 08:41:41;;;;;;;2.60;1.38;;;9.10;99.90;;;;;;5122546;28;20227;-79
2022/01/11 08:44:09;;;;;;;2.65;1.40;;;9.60;99.90;;;;;;5093664;28;20206;-79
2022/01/11 08:46:37;;;;;;;2.00;1.27;;;8.90;99.90;;;;;;5108721;28;20285;-80
2022/01/11 08:49:04;;;;;;;1.98;1.20;;;9.40;99.90;;;;;;5111030;28;20738;-79
2022/01/11 08:51:29;;;;;;;2.78;1.55;;;9.10;99.90;;;;;;5111266;28;20156;-80
2022/01/11 08:53:55;;;;;;;1.55;1.10;;;8.60;99.90;;;;;;5121059;28;20191;-81
2022/01/11 08:56:21;;;;;;;3.03;1.52;;;8.20;99.90;;;;;;5101611;28;20212;-79
2022/01/11 08:58:47;;;;;;;1.73;1.08;;;8.20;99.90;;;;;;5136625;27;20712;-77
2022/01/11 09:01:13;;;;;;;3.05;1.25;;;8.40;99.90;;;;;;5152061;27;20228;-76
2022/01/11 09:03:40;;;;;;;7.38;1.85;;;7.80;99.90;;;;;;5133624;27;20223;-78
2022/01/11 09:06:08;;;;;;;6.35;2.67;;;7.90;99.90;;;;;;5117004;28;20204;-80
2022/01/11 09:08:35;;;;;;;11.43;5.00;;;8.20;99.90;;;;;;5112595;28;20182;-77
2022/01/11 09:11:04;;;;;;;17.67;6.13;;;8.80;99.90;;;;;;5126366;28;20230;-77
2022/01/11 09:13:30;;;;;;;21.33;6.20;;;9.80;99.90;;;;;;5093543;28;20191;-77
2022/01/11 09:15:56;;;;;;;11.05;6.40;;;10.10;99.90;;;;;;5126981;28;20158;-77
2022/01/11 09:18:22;;;;;;;12.35;5.47;;;10.00;99.90;;;;;;5130305;28;20177;-77
2022/01/11 09:20:48;;;;;;;11.15;5.90;;;10.20;99.90;;;;;;5102802;28;20678;-77
2022/01/11 09:23:14;;;;;;;15.50;6.68;;;11.10;99.90;;;;;;5093983;28;20563;-78
2022/01/11 09:25:41;;;;;;;14.07;6.63;;;11.30;99.90;;;;;;5119384;28;20189;-78
2022/01/11 09:28:07;;;;;;;10.07;6.20;;;11.50;99.90;;;;;;5112568;28;20194;-78
2022/01/11 09:30:33;;;;;;;12.38;7.15;;;12.10;99.90;;;;;;5130432;28;20218;-76
2022/01/11 09:32:59;;;;;;;18.27;8.05;;;12.60;99.90;;;;;;5112308;28;20248;-78
2022/01/11 09:35:25;;;;;;;11.75;6.45;;;12.30;99.90;;;;;;5128991;28;20167;-77
2022/01/11 09:37:51;;;;;;;13.85;6.63;;;12.30;99.90;;;;;;5112448;28;20178;-78
2022/01/11 09:40:17;;;;;;;14.18;6.78;;;12.40;99.90;;;;;;5129851;28;20166;-79
2022/01/11 09:42:43;;;;;;;10.68;5.45;;;13.10;99.90;;;;;;5100993;28;20227;-80
2022/01/11 09:45:11;;;;;;;10.43;6.85;;;12.80;99.90;;;;;;5092247;28;20187;-79
2022/01/11 09:47:39;;;;;;;11.60;6.90;;;13.30;99.90;;;;;;5110086;28;20187;-78
2022/01/11 09:50:07;;;;;;;14.73;6.97;;;13.60;99.90;;;;;;5109651;28;20162;-79
2022/01/11 09:52:35;;;;;;;10.95;5.88;;;12.20;99.90;;;;;;5110896;28;20187;-78
2022/01/11 09:55:01;;;;;;;16.70;6.88;;;11.20;99.90;;;;;;5110139;28;20163;-78
2022/01/11 09:57:27;;;;;;;20.30;7.95;;;10.70;99.90;;;;;;5108867;28;20202;-77
2022/01/11 09:59:53;;;;;;;12.48;7.25;;;10.70;99.90;;;;;;5109274;28;20748;-79
2022/01/11 10:02:19;;;;;;;11.45;6.65;;;11.10;99.90;;;;;;5122010;28;20210;-77
2022/01/11 10:04:45;;;;;;;14.35;8.02;;;11.60;99.90;;;;;;5112515;28;20244;-82
2022/01/11 10:07:13;;;;;;;12.93;7.45;;;11.00;99.90;;;;;;5118796;27;20209;-80
2022/01/11 10:09:49;;;;;;;12.10;6.63;;;11.90;99.90;;;;;;5100751;28;20175;-77
2022/01/11 10:12:18;;;;;;;10.60;5.13;;;11.60;99.90;;;;;;5106481;28;20218;-78
2022/01/11 10:14:56;;;;;;;8.98;2.17;;;10.10;99.90;;;;;;5110214;28;20202;-77
2022/01/11 10:17:24;;;;;;;2.17;1.23;;;9.10;99.90;;;;;;5098839;28;20182;-75
2022/01/11 10:20:14;;;;;;;1.83;1.10;;;9.00;98.80;;;;;;5111927;28;20205;-77
2022/01/11 10:22:49;;;;;;;1.73;0.98;;;8.50;99.80;;;;;;5097296;28;20175;-78
2022/01/11 10:25:16;;;;;;;3.53;1.60;;;8.30;99.90;;;;;;5117371;27;20170;-77
2022/01/11 10:27:52;;;;;;;2.20;1.33;;;7.90;99.90;;;;;;5108789;28;20203;-76
2022/01/11 10:30:20;;;;;;;1.42;1.33;;;8.10;99.90;;;;;;5091152;28;20187;-77
2022/01/11 10:32:48;;;;;;;2.00;1.10;;;8.50;99.90;;;;;;5091385;28;20177;-76
2022/01/11 10:35:42;;;;;;;2.25;1.17;;;9.20;99.90;;;;;;5109395;28;20175;-77
2022/01/11 10:38:10;;;;;;;4.95;1.58;;;9.30;98.60;;;;;;5091001;28;20179;-76
2022/01/11 10:40:44;;;;;;;1.63;1.05;;;9.60;99.10;;;;;;5090979;28;20175;-80
2022/01/11 10:43:13;;;;;;;6.43;1.17;;;9.20;99.50;;;;;;5115649;28;20162;-76
2022/01/11 10:45:45;;;;;;;3.65;1.63;;;9.10;98.60;;;;;;5129907;28;20158;-76
2022/01/11 10:48:17;;;;;;;1.83;1.30;;;9.20;98.30;;;;;;5110042;28;20198;-79
2022/01/11 10:50:45;;;;;;;5.85;1.40;;;9.70;98.40;;;;;;5129388;28;20159;-77
2022/01/11 10:53:17;;;;;;;4.22;1.00;;;9.40;98.50;;;;;;5129555;28;20210;-76
2022/01/11 10:55:47;;;;;;;10.63;1.27;;;9.40;96.40;;;;;;5111409;28;20169;-76
2022/01/11 10:58:13;;;;;;;2.88;1.13;;;9.20;94.70;;;;;;5111095;28;20171;-76
2022/01/11 11:00:47;;;;;;;2.03;1.20;;;9.40;94.10;;;;;;5129648;28;20246;-76
2022/01/11 11:03:16;;;;;;;3.53;0.80;;;9.50;94.80;;;;;;5110957;28;20257;-77
2022/01/11 11:05:46;;;;;;;0.55;0.55;;;9.70;94.80;;;;;;5111165;28;20216;-75
2022/01/11 11:08:17;;;;;;;5.93;1.27;;;9.10;94.00;;;;;;5110837;28;20202;-76
2022/01/11 11:10:58;;;;;;;4.80;1.08;;;8.90;95.30;;;;;;5111027;28;20234;-76
2022/01/11 11:13:34;;;;;;;2.22;1.08;;;9.10;95.80;;;;;;5129454;28;20155;-75
2022/01/11 11:16:13;;;;;;;2.35;1.27;;;9.50;95.10;;;;;;5109169;28;20181;-75
2022/01/11 11:18:45;;;;;;;5.13;1.58;;;9.00;96.20;;;;;;5111373;28;20257;-80
2022/01/11 11:21:34;;;;;;;1.23;1.10;;;8.70;96.60;;;;;;5137927;28;20174;-77
2022/01/11 11:24:10;;;;;;;1.80;0.85;;;8.20;96.60;;;;;;5132079;28;20150;-77
2022/01/11 11:26:39;;;;;;;1.27;0.70;;;8.50;96.60;;;;;;5151533;27;20214;-75
2022/01/11 11:29:07;;;;;;;2.33;1.20;;;8.30;97.00;;;;;;5152635;27;20190;-76
2022/01/11 11:31:35;;;;;;;1.58;1.10;;;9.10;96.80;;;;;;5120371;27;20246;-79
2022/01/11 11:34:08;;;;;;;1.23;0.82;;;8.70;96.30;;;;;;5133343;28;20151;-80
2022/01/11 11:36:35;;;;;;;1.85;1.13;;;8.60;95.80;;;;;;5132598;28;20228;-75
2022/01/11 11:39:06;;;;;;;3.63;1.25;;;8.20;96.30;;;;;;5114483;28;20194;-76
2022/01/11 11:41:37;;;;;;;2.63;0.90;;;8.20;96.70;;;;;;5114462;28;20178;-76
2022/01/11 11:44:15;;;;;;;1.17;0.80;;;8.20;97.20;;;;;;5114760;28;20295;-76
2022/01/11 11:46:59;;;;;;;2.83;1.17;;;7.90;96.80;;;;;;5113863;28;20202;-74
2022/01/11 11:49:49;;;;;;;2.10;1.10;;;7.70;97.50;;;;;;5114390;28;20519;-76
2022/01/11 11:52:16;;;;;;;2.25;1.02;;;7.70;97.60;;;;;;5114275;28;20185;-78
2022/01/11 11:54:57;;;;;;;1.85;1.30;;;8.50;97.00;;;;;;5132867;28;20215;-78
2022/01/11 11:57:26;;;;;;;5.60;1.40;;;8.30;97.10;;;;;;5132079;28;20155;-77
2022/01/11 12:00:19;;;;;;;1.30;0.98;;;8.30;97.00;;;;;;5132193;28;20226;-78
2022/01/11 12:02:46;;;;;;;2.92;1.55;;;8.50;97.20;;;;;;5109310;28;20178;-78
2022/01/11 12:05:30;;;;;;;1.17;0.70;;;9.10;96.90;;;;;;5114067;28;20162;-78
2022/01/11 12:07:57;;;;;;;1.40;1.00;;;9.10;97.00;;;;;;5113435;28;20198;-79
2022/01/11 12:10:54;;;;;;;1.90;1.15;;;9.60;95.90;;;;;;5132134;28;20189;-78
2022/01/11 12:13:49;;;;;;;1.40;1.00;;;8.30;96.70;;;;;;5132442;28;20147;-81
2022/01/11 12:16:23;;;;;;;1.63;0.85;;;8.30;97.60;;;;;;5113888;28;20184;-78
2022/01/11 12:18:51;;;;;;;4.40;1.10;;;7.90;95.90;;;;;;5132337;28;20212;-76
2022/01/11 12:21:17;;;;;;;1.55;0.93;;;7.80;94.80;;;;;;5113535;28;20174;-79
2022/01/11 12:23:49;;;;;;;8.43;1.15;;;8.70;95.80;;;;;;5132058;28;20705;-78
2022/01/11 12:26:26;;;;;;;5.18;1.67;;;8.40;94.10;;;;;;5144763;27;20314;-78
2022/01/11 12:29:05;;;;;;;3.55;2.92;;;7.70;96.90;;;;;;5149259;27;20157;-77
2022/01/11 12:31:33;;;;;;;5.72;1.38;;;7.70;96.80;;;;;;5151267;27;20163;-79
2022/01/11 12:33:59;;;;;;;1.60;0.82;;;8.10;96.40;;;;;;5152136;27;20242;-78
2022/01/11 12:36:56;;;;;;;0.80;0.75;;;7.70;95.00;;;;;;5133959;27;20158;-80
2022/01/11 12:39:25;;;;;;;1.17;1.00;;;7.40;96.70;;;;;;5131952;27;20269;-78
2022/01/11 12:41:52;;;;;;;4.68;1.08;;;6.90;96.00;;;;;;5152617;27;20162;-79
2022/01/11 12:44:27;;;;;;;1.88;0.90;;;6.60;95.40;;;;;;5152470;27;20189;-78
2022/01/11 12:46:54;;;;;;;0.82;0.68;;;6.40;95.20;;;;;;5152219;27;20185;-78
2022/01/11 12:49:21;;;;;;;1.42;0.80;;;6.40;96.10;;;;;;5133972;27;20242;-78
2022/01/11 12:52:09;;;;;;;0.85;0.80;;;6.40;95.50;;;;;;5152613;27;20189;-80
2022/01/11 12:54:47;;;;;;;4.50;0.85;;;6.30;96.20;;;;;;5152196;27;20186;-81
2022/01/11 12:57:19;;;;;;;0.85;0.50;;;6.30;95.90;;;;;;5133493;27;20170;-79
2022/01/11 12:59:55;;;;;;;2.33;0.90;;;6.20;95.70;;;;;;5133656;27;20771;-77
2022/01/11 13:02:25;;;;;;;1.67;0.75;;;6.30;94.90;;;;;;5133701;27;20166;-81
2022/01/11 13:05:04;;;;;;;1.23;0.63;;;6.10;95.00;;;;;;5152262;27;20195;-75